Time;durP1;ratioP1;P1;durP2;ratioP2;P2;SDS_P1;SDS_P2;PMS_P1;PMS_P2;Temp;Humidity;BMP_temperature;BMP_pressure;BME280_temperature;BME280_humidity;BME280_pressure;Samples;Min_cycle;Max_cycle;Signal;HPM_P1;HPM_P2
2023/02/07 00:00:30;;;;;;;25.15;7.63;;;;;;;-143.48;87.88;118439.88;5096504;28;20028;-34
2023/02/07 00:02:56;;;;;;;24.63;9.00;;;;;;;-143.48;87.81;118439.88;5096871;28;20032;-33
2023/02/07 00:05:22;;;;;;;25.50;7.80;;;;;;;-143.48;87.81;118439.88;5096746;28;20091;-33
2023/02/07 00:07:47;;;;;;;22.05;7.88;;;;;;;-143.48;87.60;118439.88;5096346;28;20105;-34
2023/02/07 00:10:13;;;;;;;22.88;7.60;;;;;;;-143.48;87.99;118439.88;5096692;28;20024;-33
2023/02/07 00:12:38;;;;;;;25.42;7.60;;;;;;;-143.48;87.44;118439.88;5096649;28;20123;-33
2023/02/07 00:15:05;;;;;;;24.67;8.25;;;;;;;-143.48;87.65;118439.88;5096268;28;20028;-33
2023/02/07 00:17:30;;;;;;;19.88;7.68;;;;;;;-143.48;87.76;118439.88;5096769;28;20421;-33
2023/02/07 00:19:56;;;;;;;19.48;7.32;;;;;;;-143.48;87.69;118439.88;5078757;28;20023;-33
2023/02/07 00:22:21;;;;;;;21.77;6.93;;;;;;;-143.48;87.59;118439.88;5078047;28;20054;-34
2023/02/07 00:24:47;;;;;;;21.48;7.18;;;;;;;-143.48;87.44;118439.88;5095653;28;20024;-33
2023/02/07 00:27:12;;;;;;;20.42;6.47;;;;;;;-143.48;86.99;118439.88;5095785;28;20038;-34
2023/02/07 00:29:37;;;;;;;19.35;6.95;;;;;;;-143.48;87.97;118439.88;5095152;28;20024;-33
2023/02/07 00:32:03;;;;;;;14.15;6.20;;;;;;;-143.48;87.36;118439.88;5093858;28;20107;-33
2023/02/07 00:34:30;;;;;;;16.40;6.68;;;;;;;-143.48;87.16;118439.88;5093828;28;20488;-33
2023/02/07 00:36:55;;;;;;;20.38;6.93;;;;;;;-143.48;87.18;118439.88;5093867;28;20028;-33
2023/02/07 00:39:21;;;;;;;19.67;6.68;;;;;;;-143.48;86.94;118439.88;5075474;28;20145;-33
2023/02/07 00:41:46;;;;;;;23.60;7.80;;;;;;;-143.48;86.75;118439.88;5093444;28;20028;-33
2023/02/07 00:44:12;;;;;;;22.15;6.72;;;;;;;-143.48;86.97;118439.88;5075384;28;20532;-33
2023/02/07 00:46:38;;;;;;;22.73;6.65;;;;;;;-143.48;86.90;118439.88;5094440;28;20027;-34
2023/02/07 00:49:04;;;;;;;17.92;6.50;;;;;;;-143.48;87.18;118439.88;5095658;28;20055;-33
2023/02/07 00:51:31;;;;;;;17.92;6.68;;;;;;;-143.48;87.91;118439.88;5095534;28;20522;-33
2023/02/07 00:53:56;;;;;;;22.60;6.68;;;;;;;-143.48;87.60;118439.88;5095724;28;20020;-33
2023/02/07 00:56:24;;;;;;;20.15;7.03;;;;;;;-143.48;87.45;118439.88;5096044;28;20031;-33
2023/02/07 00:58:50;;;;;;;15.23;6.35;;;;;;;-143.48;88.61;118439.88;5095508;28;20102;-34
2023/02/07 01:01:15;;;;;;;21.77;7.47;;;;;;;-143.48;88.79;118439.88;5095890;28;20115;-34
2023/02/07 01:03:41;;;;;;;18.42;8.07;;;;;;;-143.48;88.43;118439.88;5095274;28;20070;-33
2023/02/07 01:06:07;;;;;;;23.73;9.23;;;;;;;-143.48;89.50;118439.88;5095840;28;20020;-33
2023/02/07 01:08:33;;;;;;;21.83;9.60;;;;;;;-143.48;89.90;118439.88;5094503;28;20072;-33
2023/02/07 01:11:04;;;;;;;19.45;8.70;;;;;;;-143.48;90.63;118439.88;5095209;28;20031;-33
2023/02/07 01:13:29;;;;;;;17.75;9.18;;;;;;;-143.48;91.05;118439.88;5095039;28;20036;-33
2023/02/07 01:15:54;;;;;;;17.65;8.88;;;;;;;-143.48;90.76;118439.88;5095041;28;20024;-34
2023/02/07 01:18:20;;;;;;;20.42;9.25;;;;;;;-143.48;91.17;118439.88;5095062;28;20042;-34
2023/02/07 01:20:45;;;;;;;14.73;8.57;;;;;;;-143.48;90.85;118439.88;5095271;28;20020;-34
2023/02/07 01:23:12;;;;;;;17.63;9.02;;;;;;;-143.48;91.16;118439.88;5095022;28;20474;-33
2023/02/07 01:25:38;;;;;;;18.77;8.55;;;;;;;-143.48;91.46;118439.88;5095098;28;20059;-34
2023/02/07 01:28:04;;;;;;;17.25;8.15;;;;;;;-143.48;90.83;118439.88;5095479;28;20027;-33
2023/02/07 01:30:29;;;;;;;17.73;8.68;;;;;;;-143.48;90.37;118439.88;5095164;28;20394;-34
2023/02/07 01:32:55;;;;;;;17.42;8.63;;;;;;;-143.48;89.86;118439.88;5095080;28;20023;-34
2023/02/07 01:35:22;;;;;;;27.40;9.23;;;;;;;-143.48;90.44;118439.88;5094779;28;20024;-34
2023/02/07 01:37:48;;;;;;;17.42;8.55;;;;;;;-143.48;89.86;118439.88;5076854;28;20078;-33
2023/02/07 01:40:13;;;;;;;13.55;7.82;;;;;;;-143.48;89.53;118439.88;5095121;28;20421;-33
2023/02/07 01:42:38;;;;;;;16.45;8.20;;;;;;;-143.48;90.29;118439.88;5094565;28;20086;-33
2023/02/07 01:45:06;;;;;;;19.13;7.90;;;;;;;-143.48;89.73;118439.88;5094626;28;20016;-33
2023/02/07 01:47:34;;;;;;;15.30;8.40;;;;;;;-143.48;90.04;118439.88;5094052;28;20409;-33
2023/02/07 01:50:00;;;;;;;14.13;8.00;;;;;;;-143.48;90.25;118439.88;5094362;28;20048;-33
2023/02/07 01:52:31;;;;;;;16.92;8.30;;;;;;;-143.48;89.90;118439.88;5094410;28;20031;-34
2023/02/07 01:55:02;;;;;;;14.65;8.02;;;;;;;-143.48;90.52;118439.88;5095020;28;20481;-33
2023/02/07 01:57:29;;;;;;;14.40;7.57;;;;;;;-143.48;90.24;118439.88;5094612;28;20484;-34
2023/02/07 01:59:56;;;;;;;18.75;8.60;;;;;;;-143.48;90.07;118439.88;5094570;28;20409;-33
2023/02/07 02:02:23;;;;;;;17.70;8.30;;;;;;;-143.48;90.42;118439.88;5094435;28;20027;-33
2023/02/07 02:04:52;;;;;;;15.50;8.30;;;;;;;-143.48;90.42;118439.88;5094198;28;20032;-33
2023/02/07 02:07:18;;;;;;;16.27;8.10;;;;;;;-143.48;91.04;118439.88;5094204;28;20024;-34
2023/02/07 02:09:43;;;;;;;17.98;8.27;;;;;;;-143.48;90.86;118439.88;5094589;28;20027;-33
2023/02/07 02:12:36;;;;;;;21.63;8.23;;;;;;;-143.48;90.82;118439.88;5094337;28;20092;-33
2023/02/07 02:15:38;;;;;;;15.63;7.45;;;;;;;-143.48;90.68;118439.88;5094339;28;20038;-33
2023/02/07 02:18:12;;;;;;;13.85;7.70;;;;;;;-143.48;89.79;118439.88;5094591;28;20027;-34
2023/02/07 02:21:09;;;;;;;20.33;8.30;;;;;;;-143.48;90.61;118439.88;5075586;28;20468;-33
2023/02/07 02:23:53;;;;;;;20.77;8.18;;;;;;;-143.48;90.84;118439.88;5023489;28;20120;-34
2023/02/07 02:26:34;;;;;;;17.15;8.30;;;;;;;-143.48;91.73;118439.88;5094116;28;20032;-34
2023/02/07 02:29:23;;;;;;;16.33;8.30;;;;;;;-143.48;90.46;118439.88;5094129;28;20054;-34
2023/02/07 02:32:27;;;;;;;20.17;8.32;;;;;;;-143.48;89.96;118439.88;5093977;28;20366;-33
2023/02/07 02:34:57;;;;;;;16.67;8.13;;;;;;;-143.48;89.77;118439.88;5075630;28;20032;-33
2023/02/07 02:37:37;;;;;;;19.92;7.97;;;;;;;-143.48;89.80;118439.88;5094337;28;20094;-34
2023/02/07 02:40:34;;;;;;;21.50;9.02;;;;;;;-143.48;91.47;118439.88;5094122;28;20063;-34
2023/02/07 02:43:08;;;;;;;19.42;8.98;;;;;;;-143.48;90.63;118439.88;5094104;28;20066;-34
2023/02/07 02:45:41;;;;;;;20.98;8.88;;;;;;;-143.48;90.84;118439.88;5093661;28;20035;-34
2023/02/07 02:48:09;;;;;;;19.98;8.57;;;;;;;-143.48;91.00;118439.88;5093491;28;20131;-33
2023/02/07 02:50:35;;;;;;;18.85;8.20;;;;;;;-143.48;90.95;118439.88;5093596;28;20466;-34
2023/02/07 02:53:01;;;;;;;17.60;8.48;;;;;;;-143.48;91.11;118439.88;5093661;28;20096;-33
2023/02/07 02:56:04;;;;;;;19.88;8.32;;;;;;;-143.48;90.15;118439.88;5093507;28;20103;-33
2023/02/07 02:59:30;;;;;;;23.75;8.60;;;;;;;-143.48;89.94;118439.88;5093721;28;20069;-33
2023/02/07 03:02:33;;;;;;;19.85;8.32;;;;;;;-143.48;89.64;118439.88;5031291;28;20029;-33
2023/02/07 03:05:04;;;;;;;22.33;8.33;;;;;;;-143.48;90.76;118439.88;5031444;28;20036;-33
2023/02/07 03:07:57;;;;;;;17.92;8.55;;;;;;;-143.48;90.61;118439.88;5078394;28;20035;-33
2023/02/07 03:10:28;;;;;;;21.70;8.55;;;;;;;-143.48;91.79;118439.88;5093624;28;20371;-34
2023/02/07 03:13:20;;;;;;;25.15;9.48;;;;;;;-143.48;92.19;118439.88;5093335;28;20379;-37
2023/02/07 03:15:59;;;;;;;26.58;8.55;;;;;;;-143.48;92.27;118439.88;5093539;28;20456;-34
2023/02/07 03:18:33;;;;;;;25.50;9.20;;;;;;;-143.48;91.72;118439.88;5093312;28;20024;-34
2023/02/07 03:21:11;;;;;;;19.15;7.95;;;;;;;-143.48;91.56;118439.88;5093245;28;20055;-34
2023/02/07 03:23:37;;;;;;;23.05;8.60;;;;;;;-143.48;91.41;118439.88;5093185;28;20027;-34
2023/02/07 03:26:05;;;;;;;24.27;9.55;;;;;;;-143.48;91.21;118439.88;5092812;28;20516;-34
2023/02/07 03:28:32;;;;;;;25.73;8.90;;;;;;;-143.48;92.00;118439.88;5091355;28;20020;-34
2023/02/07 03:31:01;;;;;;;22.85;9.35;;;;;;;-143.48;91.98;118439.88;5092247;28;20012;-33
2023/02/07 03:33:27;;;;;;;23.75;9.20;;;;;;;-143.48;92.29;118439.88;5094897;28;20020;-33
2023/02/07 03:36:05;;;;;;;18.63;9.10;;;;;;;-143.48;92.41;118439.88;5095259;28;20031;-33
2023/02/07 03:38:31;;;;;;;26.45;9.20;;;;;;;-143.48;92.10;118439.88;5095015;28;20035;-34
2023/02/07 03:41:00;;;;;;;20.83;8.90;;;;;;;-143.48;91.85;118439.88;5094688;28;20024;-33
2023/02/07 03:43:31;;;;;;;24.50;8.73;;;;;;;-143.48;91.96;118439.88;5095030;28;20028;-34
2023/02/07 03:45:56;;;;;;;19.10;8.63;;;;;;;-143.48;91.76;118439.88;5096605;28;20019;-34
2023/02/07 03:48:22;;;;;;;22.45;8.05;;;;;;;-143.48;91.96;118439.88;5096640;28;20055;-33
2023/02/07 03:50:50;;;;;;;18.40;8.63;;;;;;;-143.48;92.35;118439.88;5096853;28;20016;-33
2023/02/07 03:53:16;;;;;;;22.08;8.40;;;;;;;-143.48;92.65;118439.88;5096962;28;20047;-33
2023/02/07 03:55:41;;;;;;;18.35;8.27;;;;;;;-143.48;92.81;118439.88;5097271;28;20064;-34
2023/02/07 03:58:07;;;;;;;23.05;8.43;;;;;;;-143.48;92.59;118439.88;5096964;28;20024;-34
2023/02/07 04:00:32;;;;;;;17.42;8.55;;;;;;;-143.48;92.28;118439.88;5096831;28;20463;-33
2023/02/07 04:02:58;;;;;;;16.98;8.35;;;;;;;-143.48;92.11;118439.88;5096741;28;20020;-33
2023/02/07 04:05:24;;;;;;;20.08;7.35;;;;;;;-143.48;92.17;118439.88;5096548;28;20026;-33
2023/02/07 04:07:49;;;;;;;18.15;7.55;;;;;;;-143.48;92.06;118439.88;5096719;28;20030;-33
2023/02/07 04:10:14;;;;;;;20.38;9.25;;;;;;;-143.48;92.06;118439.88;5096648;28;20062;-33
2023/02/07 04:12:40;;;;;;;16.75;8.07;;;;;;;-143.48;92.31;118439.88;5096682;28;20054;-34
2023/02/07 04:15:06;;;;;;;22.83;7.85;;;;;;;-143.48;92.60;118439.88;5096625;28;20024;-33
2023/02/07 04:17:32;;;;;;;18.88;9.20;;;;;;;-143.48;92.87;118439.88;5096531;28;20020;-33
2023/02/07 04:19:57;;;;;;;20.73;8.18;;;;;;;-143.48;93.22;118439.88;5096215;28;20028;-33
2023/02/07 04:22:22;;;;;;;17.88;7.72;;;;;;;-143.48;92.50;118439.88;5096285;28;20109;-34
2023/02/07 04:24:48;;;;;;;20.70;8.85;;;;;;;-143.48;91.93;118439.88;5096129;28;20028;-34
2023/02/07 04:27:14;;;;;;;16.92;8.27;;;;;;;-143.48;91.66;118439.88;5096153;28;20035;-34
2023/02/07 04:29:39;;;;;;;23.80;8.90;;;;;;;-143.48;91.25;118439.88;5096081;28;20028;-33
2023/02/07 04:32:04;;;;;;;21.15;8.48;;;;;;;-143.48;91.15;118439.88;5095886;28;20103;-33
2023/02/07 04:34:30;;;;;;;21.88;8.02;;;;;;;-143.48;91.51;118439.88;5095960;28;20039;-33
2023/02/07 04:36:55;;;;;;;23.17;7.78;;;;;;;-143.48;91.15;118439.88;5095936;28;20059;-33
2023/02/07 04:39:20;;;;;;;17.02;8.52;;;;;;;-143.48;91.41;118439.88;5096129;28;20420;-33
2023/02/07 04:41:46;;;;;;;22.75;8.85;;;;;;;-143.48;92.17;118439.88;5095275;28;20046;-33
2023/02/07 04:44:11;;;;;;;26.42;8.93;;;;;;;-143.48;92.00;118439.88;5094917;28;20028;-33
2023/02/07 04:46:36;;;;;;;19.95;8.98;;;;;;;-143.48;91.81;118439.88;5096047;28;20024;-34
2023/02/07 04:49:03;;;;;;;22.55;9.32;;;;;;;-143.48;92.44;118439.88;5095556;28;20044;-33
2023/02/07 04:51:29;;;;;;;18.77;8.50;;;;;;;-143.48;92.68;118439.88;5095672;28;20036;-33
2023/02/07 04:53:55;;;;;;;24.27;9.77;;;;;;;-143.48;92.86;118439.88;5095550;28;20032;-33
2023/02/07 04:56:21;;;;;;;23.40;9.18;;;;;;;-143.48;92.73;118439.88;5095453;28;20129;-33
2023/02/07 04:58:46;;;;;;;23.42;9.07;;;;;;;-143.48;92.72;118439.88;5096030;28;20035;-33
2023/02/07 05:01:11;;;;;;;17.20;8.43;;;;;;;-143.48;92.36;118439.88;5095628;28;20077;-33
2023/02/07 05:03:36;;;;;;;20.02;9.20;;;;;;;-143.48;92.03;118439.88;5095925;28;20020;-34
2023/02/07 05:06:02;;;;;;;18.83;8.40;;;;;;;-143.48;92.10;118439.88;5095597;28;20027;-33
2023/02/07 05:08:27;;;;;;;15.80;8.10;;;;;;;-143.48;91.82;118439.88;5095375;28;20069;-33
2023/02/07 05:10:54;;;;;;;18.80;8.52;;;;;;;-143.48;91.82;118439.88;5095244;28;20110;-33
2023/02/07 05:13:20;;;;;;;34.95;8.75;;;;;;;-143.48;92.15;118439.88;5095197;28;20058;-33
2023/02/07 05:15:45;;;;;;;21.25;8.57;;;;;;;-143.48;93.25;118439.88;5095950;28;20059;-33
2023/02/07 05:18:10;;;;;;;21.70;8.70;;;;;;;-143.48;93.28;118439.88;5095333;28;20530;-34
2023/02/07 05:20:36;;;;;;;19.55;9.07;;;;;;;-143.48;92.78;118439.88;5095154;28;20508;-33
2023/02/07 05:23:01;;;;;;;20.33;9.05;;;;;;;-143.48;92.58;118439.88;5076782;28;20492;-34
2023/02/07 05:25:26;;;;;;;18.90;8.52;;;;;;;-143.48;93.30;118439.88;5095300;28;20024;-34
2023/02/07 05:27:52;;;;;;;16.00;9.02;;;;;;;-143.48;93.01;118439.88;5094831;28;20016;-34
2023/02/07 05:30:18;;;;;;;22.42;9.05;;;;;;;-143.48;92.47;118439.88;5095471;28;20024;-33
2023/02/07 05:35:26;;;;;;;19.55;8.63;;;;;;;-143.48;92.96;118439.88;5095348;28;20051;-34
2023/02/07 05:37:52;;;;;;;23.77;9.60;;;;;;;-143.48;92.31;118439.88;5076509;28;20024;-34
2023/02/07 05:40:17;;;;;;;21.88;9.55;;;;;;;-143.48;92.23;118439.88;5094856;28;20032;-33
2023/02/07 05:42:42;;;;;;;22.42;9.50;;;;;;;-143.48;92.49;118439.88;5095092;28;20107;-33
2023/02/07 05:45:08;;;;;;;21.88;9.60;;;;;;;-143.48;92.71;118439.88;5094904;28;20413;-34
2023/02/07 05:47:34;;;;;;;21.73;9.90;;;;;;;-143.48;92.48;118439.88;5094856;28;20382;-33
2023/02/07 05:49:59;;;;;;;21.23;10.07;;;;;;;-143.48;91.96;118439.88;5095091;28;20050;-34
2023/02/07 05:52:25;;;;;;;21.92;9.60;;;;;;;-143.48;91.64;118439.88;5094523;28;20031;-34
2023/02/07 05:54:50;;;;;;;21.90;9.88;;;;;;;-143.48;91.49;118439.88;5094690;28;20028;-33
2023/02/07 05:57:16;;;;;;;24.52;9.60;;;;;;;-143.48;91.39;118439.88;5094412;28;20066;-34
2023/02/07 05:59:41;;;;;;;26.48;9.95;;;;;;;-143.48;91.35;118439.88;5094592;28;20027;-33
2023/02/07 06:02:06;;;;;;;23.55;10.15;;;;;;;-143.48;91.95;118439.88;5094478;28;20023;-33
2023/02/07 06:04:31;;;;;;;22.90;9.60;;;;;;;-143.48;91.81;118439.88;5094258;28;20032;-33
2023/02/07 06:06:57;;;;;;;26.98;10.20;;;;;;;-143.48;92.03;118439.88;5094535;28;20065;-33
2023/02/07 06:09:22;;;;;;;33.17;10.20;;;;;;;-143.48;92.65;118439.88;5094154;28;20020;-33
2023/02/07 06:11:47;;;;;;;34.80;12.00;;;;;;;-143.48;93.87;118439.88;5094269;28;20459;-34
2023/02/07 06:14:13;;;;;;;26.42;10.40;;;;;;;-143.48;94.10;118439.88;5094537;28;20028;-33
2023/02/07 06:16:38;;;;;;;50.45;11.65;;;;;;;-143.48;94.15;118439.88;5094622;28;20109;-34
2023/02/07 06:19:03;;;;;;;31.63;11.00;;;;;;;-143.48;94.28;118439.88;5093992;28;20463;-33
2023/02/07 06:21:29;;;;;;;69.78;13.23;;;;;;;-143.48;94.29;118439.88;5094108;28;20028;-33
2023/02/07 06:23:54;;;;;;;57.33;11.57;;;;;;;-143.48;94.03;118439.88;5093950;28;20106;-34
2023/02/07 06:26:20;;;;;;;98.88;13.93;;;;;;;-143.48;94.10;118439.88;5093934;28;20530;-33
2023/02/07 06:28:45;;;;;;;70.60;12.10;;;;;;;-143.48;94.64;118439.88;5094042;28;20032;-34
2023/02/07 06:31:10;;;;;;;33.55;12.80;;;;;;;-143.48;95.18;118439.88;5094044;28;20016;-33
2023/02/07 06:33:36;;;;;;;30.33;11.60;;;;;;;-143.48;94.18;118439.88;5094234;28;20391;-33
2023/02/07 06:36:01;;;;;;;34.63;12.00;;;;;;;-143.48;94.40;118439.88;5093626;28;20073;-33
2023/02/07 06:38:26;;;;;;;35.60;12.93;;;;;;;-143.48;94.00;118439.88;5093986;28;20036;-34
2023/02/07 06:40:52;;;;;;;31.48;11.80;;;;;;;-143.48;93.50;118439.88;5093683;28;20020;-33
2023/02/07 06:43:17;;;;;;;33.60;11.88;;;;;;;-143.48;93.33;118439.88;5093686;28;20016;-33
2023/02/07 06:45:43;;;;;;;34.83;12.23;;;;;;;-143.48;93.14;118439.88;5094020;28;20031;-34
2023/02/07 06:48:08;;;;;;;23.80;10.68;;;;;;;-143.48;93.04;118439.88;5075243;28;20075;-33
2023/02/07 06:50:34;;;;;;;27.17;11.10;;;;;;;-143.48;92.46;118439.88;5094086;28;20455;-33
2023/02/07 06:53:00;;;;;;;28.30;11.27;;;;;;;-143.48;92.11;118439.88;5093521;28;20021;-34
2023/02/07 06:55:34;;;;;;;24.75;11.13;;;;;;;-143.48;91.64;118439.88;5075311;28;20028;-34
2023/02/07 06:57:59;;;;;;;26.20;10.77;;;;;;;-143.48;91.19;118439.88;5076632;28;20043;-34
2023/02/07 07:00:25;;;;;;;30.08;11.68;;;;;;;-143.48;91.64;118439.88;5093506;28;20024;-33
2023/02/07 07:02:51;;;;;;;28.90;11.90;;;;;;;-143.48;91.41;118439.88;5091218;28;20020;-34
2023/02/07 07:05:17;;;;;;;28.25;12.13;;;;;;;-143.48;91.37;118439.88;5091222;28;20058;-34
2023/02/07 07:07:43;;;;;;;26.67;10.95;;;;;;;-143.48;91.46;118439.88;5095269;28;20067;-34
2023/02/07 07:10:08;;;;;;;26.67;11.20;;;;;;;-143.48;91.34;118439.88;5095715;28;20593;-33
2023/02/07 07:12:34;;;;;;;30.00;11.57;;;;;;;-143.48;90.99;118439.88;5095383;28;20107;-33
2023/02/07 07:14:59;;;;;;;27.15;11.68;;;;;;;-143.48;90.75;118439.88;5094714;28;20478;-33
2023/02/07 07:17:25;;;;;;;23.90;11.50;;;;;;;-143.48;90.50;118439.88;5094806;28;20028;-34
2023/02/07 07:19:50;;;;;;;25.55;11.45;;;;;;;-143.48;90.16;118439.88;5095370;28;20474;-34
2023/02/07 07:22:16;;;;;;;31.73;11.98;;;;;;;-143.48;89.93;118439.88;5095028;28;20016;-33
2023/02/07 07:24:41;;;;;;;26.50;11.90;;;;;;;-143.48;89.73;118439.88;5095171;28;20077;-33
2023/02/07 07:27:06;;;;;;;26.67;12.20;;;;;;;-143.48;89.63;118439.88;5096414;28;20031;-34
2023/02/07 07:29:32;;;;;;;30.90;12.73;;;;;;;-143.48;89.65;118439.88;5096748;28;20106;-33
2023/02/07 07:31:57;;;;;;;32.47;13.00;;;;;;;-143.48;89.74;118439.88;5096915;28;20027;-33
2023/02/07 07:34:22;;;;;;;31.08;13.38;;;;;;;-143.48;89.80;118439.88;5096822;28;20103;-34
2023/02/07 07:36:48;;;;;;;34.65;13.15;;;;;;;-143.48;89.54;118439.88;5096111;28;20048;-33
2023/02/07 07:39:13;;;;;;;31.80;13.02;;;;;;;-143.48;89.00;118439.88;5095923;28;20028;-33
2023/02/07 07:41:38;;;;;;;29.85;12.85;;;;;;;-143.48;89.36;118439.88;5096560;28;20028;-34
2023/02/07 07:44:04;;;;;;;30.00;13.55;;;;;;;-143.48;86.69;118439.88;5078665;28;20449;-34
2023/02/07 07:46:29;;;;;;;30.42;13.48;;;;;;;-143.48;86.30;118439.88;5096518;28;20442;-34
2023/02/07 07:48:55;;;;;;;31.35;14.10;;;;;;;-143.48;87.42;118439.88;5096088;28;20048;-34
2023/02/07 07:51:20;;;;;;;32.97;14.63;;;;;;;-143.48;87.33;118439.88;5096520;28;20077;-34
2023/02/07 07:53:45;;;;;;;33.78;14.27;;;;;;;-143.48;87.01;118439.88;5096883;28;20035;-34
2023/02/07 07:56:11;;;;;;;28.17;13.95;;;;;;;-143.48;87.50;118439.88;5096780;28;20470;-33
2023/02/07 07:58:36;;;;;;;37.83;14.85;;;;;;;-143.48;87.34;118439.88;5095669;28;20028;-34
2023/02/07 08:01:01;;;;;;;40.28;16.25;;;;;;;-143.48;87.63;118439.88;5095860;28;20024;-33
2023/02/07 08:03:27;;;;;;;37.92;16.67;;;;;;;-143.48;87.60;118439.88;5096492;28;20082;-33
2023/02/07 08:05:53;;;;;;;52.30;20.20;;;;;;;-143.48;87.83;118439.88;5096467;28;20089;-33
2023/02/07 08:08:19;;;;;;;45.67;19.88;;;;;;;-143.48;87.53;118439.88;5093730;28;20382;-33
2023/02/07 08:10:45;;;;;;;38.70;16.35;;;;;;;-143.48;88.07;118439.88;5094954;28;20020;-33
2023/02/07 08:13:10;;;;;;;30.02;14.05;;;;;;;-143.48;87.65;118439.88;5078097;28;20024;-33
2023/02/07 08:15:36;;;;;;;38.22;15.15;;;;;;;-143.48;81.35;118439.88;5096032;28;20111;-33
2023/02/07 08:18:01;;;;;;;30.38;14.13;;;;;;;-143.48;71.97;118439.88;5096238;28;20028;-34
2023/02/07 08:20:27;;;;;;;26.10;14.45;;;;;;;-143.48;65.86;118439.88;5075605;28;20028;-33
2023/02/07 08:22:52;;;;;;;31.63;15.90;;;;;;;-143.48;64.79;118439.88;5093854;28;20235;-33
2023/02/07 08:25:17;;;;;;;30.27;15.45;;;;;;;-143.48;68.10;118439.88;5093931;28;20032;-33
2023/02/07 08:27:43;;;;;;;26.13;15.32;;;;;;;-143.48;75.55;118439.88;5093520;28;20509;-33
2023/02/07 08:30:11;;;;;;;33.25;15.10;;;;;;;-143.48;78.90;118439.88;5094037;28;20027;-33
2023/02/07 08:32:38;;;;;;;28.75;15.60;;;;;;;-143.48;77.50;118439.88;5059316;28;20036;-34
2023/02/07 08:35:04;;;;;;;34.05;15.32;;;;;;;-143.48;77.99;118439.88;5094907;28;20024;-33
2023/02/07 08:37:29;;;;;;;29.75;14.82;;;;;;;-143.48;78.88;118439.88;5095475;28;20035;-33
2023/02/07 08:39:55;;;;;;;40.08;16.27;;;;;;;-143.48;79.71;118439.88;5095975;28;20366;-33
2023/02/07 08:42:21;;;;;;;36.22;16.30;;;;;;;-143.48;81.05;118439.88;5095883;28;20464;-33
2023/02/07 08:44:47;;;;;;;32.22;14.98;;;;;;;-143.48;81.06;118439.88;5095775;28;20031;-33
2023/02/07 08:47:16;;;;;;;33.75;15.38;;;;;;;-143.48;81.82;118439.88;5095618;28;20105;-33
2023/02/07 08:49:42;;;;;;;37.42;15.82;;;;;;;-143.48;81.79;118439.88;5095135;28;20044;-33
2023/02/07 08:52:08;;;;;;;35.17;15.85;;;;;;;-143.48;81.91;118439.88;5095909;28;20024;-33
2023/02/07 08:54:34;;;;;;;36.78;15.73;;;;;;;-143.48;82.71;118439.88;5095763;28;20028;-34
2023/02/07 08:56:59;;;;;;;31.63;15.13;;;;;;;-143.48;80.95;118439.88;5095449;28;20024;-33
2023/02/07 08:59:25;;;;;;;30.55;14.18;;;;;;;-143.48;81.45;118439.88;5095684;28;20504;-32
2023/02/07 09:01:50;;;;;;;33.45;15.55;;;;;;;-143.48;81.81;118439.88;5095141;28;20031;-32
2023/02/07 09:04:16;;;;;;;36.38;14.82;;;;;;;-143.48;80.45;118439.88;5095496;28;20024;-33
2023/02/07 09:06:41;;;;;;;33.25;14.55;;;;;;;-143.48;80.66;118439.88;5095074;28;20024;-33
2023/02/07 09:09:08;;;;;;;34.38;14.75;;;;;;;-143.48;81.48;118439.88;5095641;28;20035;-33
2023/02/07 09:11:33;;;;;;;37.63;14.77;;;;;;;-143.48;81.18;118439.88;5095210;28;20052;-32
2023/02/07 09:13:59;;;;;;;40.92;15.05;;;;;;;-143.48;81.82;118439.88;5095143;28;20062;-33
2023/02/07 09:16:24;;;;;;;34.92;14.02;;;;;;;-143.48;81.70;118439.88;5095442;28;20099;-33
2023/02/07 09:18:50;;;;;;;32.85;14.10;;;;;;;-143.48;81.55;118439.88;5095096;28;20016;-33
2023/02/07 09:21:16;;;;;;;31.52;14.07;;;;;;;-143.48;81.38;118439.88;5095148;28;20446;-33
2023/02/07 09:23:42;;;;;;;32.10;15.02;;;;;;;-143.48;80.56;118439.88;5094909;28;20031;-33
2023/02/07 09:26:08;;;;;;;39.55;16.98;;;;;;;-143.48;80.43;118439.88;5094871;28;20024;-32
2023/02/07 09:28:34;;;;;;;29.45;13.65;;;;;;;-143.48;76.41;118439.88;5094105;28;20047;-33
2023/02/07 09:31:06;;;;;;;30.33;13.80;;;;;;;-143.48;62.35;118439.88;5094546;28;20032;-33
2023/02/07 09:33:32;;;;;;;31.10;14.90;;;;;;;-143.48;53.35;118439.88;5094555;28;20073;-34
2023/02/07 09:35:57;;;;;;;27.35;13.77;;;;;;;-143.48;49.99;118439.88;5094668;28;20027;-33
2023/02/07 09:38:24;;;;;;;23.52;13.75;;;;;;;-143.48;49.19;118439.88;5094524;28;20027;-33
2023/02/07 09:40:51;;;;;;;25.52;13.13;;;;;;;-143.48;47.22;118439.88;5094564;28;20519;-34
2023/02/07 09:43:38;;;;;;;21.98;13.05;;;;;;;-143.48;46.69;118439.88;5094506;28;20173;-33
2023/02/07 09:46:21;;;;;;;19.60;12.25;;;;;;;-143.48;44.91;118439.88;5076308;28;20028;-33
2023/02/07 09:48:51;;;;;;;20.55;12.25;;;;;;;-143.48;42.77;118439.88;5094516;28;20051;-33
2023/02/07 09:51:22;;;;;;;18.42;11.82;;;;;;;-143.48;44.24;118439.88;5094262;28;20022;-34
2023/02/07 09:53:59;;;;;;;18.05;11.68;;;;;;;-143.48;42.72;118439.88;5094646;28;20024;-33
2023/02/07 09:56:28;;;;;;;17.98;10.95;;;;;;;-143.48;42.41;118439.88;5093667;28;20076;-34
2023/02/07 09:59:02;;;;;;;17.90;11.75;;;;;;;-143.48;42.20;118439.88;5094203;28;20028;-34
2023/02/07 10:01:39;;;;;;;16.52;11.00;;;;;;;-143.48;41.12;118439.88;5094179;28;20039;-34
2023/02/07 10:04:12;;;;;;;18.73;11.27;;;;;;;-143.48;42.10;118439.88;5094089;28;20043;-34
2023/02/07 10:06:42;;;;;;;16.65;10.90;;;;;;;-143.48;40.65;118439.88;5094173;28;20024;-34
2023/02/07 10:09:14;;;;;;;20.17;10.88;;;;;;;-143.48;38.90;118439.88;5093938;28;20112;-33
2023/02/07 10:11:58;;;;;;;17.23;10.95;;;;;;;-143.48;40.24;118439.88;5094442;28;20024;-33
2023/02/07 10:14:53;;;;;;;16.98;10.55;;;;;;;-143.48;39.18;118439.88;5094106;28;20031;-34
2023/02/07 10:18:01;;;;;;;16.50;10.50;;;;;;;-143.48;37.42;118439.88;5093824;28;20034;-33
2023/02/07 10:21:02;;;;;;;15.02;9.95;;;;;;;-143.48;37.65;118439.88;5067220;28;20044;-34
2023/02/07 10:23:46;;;;;;;18.13;10.27;;;;;;;-143.48;37.25;118439.88;5061196;28;20067;-34
2023/02/07 10:26:33;;;;;;;17.58;9.93;;;;;;;-143.48;37.12;118439.88;5094008;28;20463;-34
2023/02/07 10:29:06;;;;;;;13.90;10.02;;;;;;;-143.48;36.81;118439.88;5093766;28;20024;-34
2023/02/07 10:31:36;;;;;;;17.33;9.80;;;;;;;-143.48;36.23;118439.88;5093965;28;20026;-33
2023/02/07 10:34:33;;;;;;;16.33;10.45;;;;;;;-143.48;37.10;118439.88;5094007;28;20103;-34
2023/02/07 10:36:59;;;;;;;16.65;10.02;;;;;;;-143.48;36.01;118439.88;5092329;28;20047;-33
2023/02/07 10:39:35;;;;;;;11.52;8.75;;;;;;;-143.48;35.93;118439.88;5093955;28;20106;-34
2023/02/07 10:42:00;;;;;;;13.70;8.18;;;;;;;-143.48;35.11;118439.88;5092773;28;20490;-33
2023/02/07 10:44:28;;;;;;;11.50;7.70;;;;;;;-143.48;34.35;118439.88;5092758;28;20123;-34
2023/02/07 10:47:00;;;;;;;10.48;7.22;;;;;;;-143.48;34.66;118439.88;5093151;28;20074;-33
2023/02/07 10:49:28;;;;;;;10.73;7.43;;;;;;;-143.48;34.34;118439.88;5074572;28;20044;-33
2023/02/07 10:52:16;;;;;;;13.30;7.40;;;;;;;-143.48;33.57;118439.88;5092958;28;20031;-33
2023/02/07 10:54:51;;;;;;;14.10;7.65;;;;;;;-143.48;33.29;118439.88;5092880;28;20090;-34
2023/02/07 10:57:18;;;;;;;11.70;7.07;;;;;;;-143.48;33.45;118439.88;5092666;28;20024;-33
2023/02/07 10:59:49;;;;;;;8.88;6.55;;;;;;;-143.48;34.91;118439.88;5092617;28;20467;-34
2023/02/07 11:02:32;;;;;;;18.90;7.47;;;;;;;-143.48;34.80;118439.88;5092986;28;20047;-34
2023/02/07 11:05:13;;;;;;;10.30;6.97;;;;;;;-143.48;33.89;118439.88;5092338;28;20028;-33
2023/02/07 11:07:39;;;;;;;9.82;7.15;;;;;;;-143.48;33.00;118439.88;5093837;28;20039;-33
2023/02/07 11:10:22;;;;;;;10.52;7.13;;;;;;;-143.48;32.16;118439.88;5075197;28;20028;-34